Latest Coastal Weather Observations for Williamtown

IDN60701

Issued at 9:31 am EDT Friday 23 February 2018 (issued every 10 minutes, with the page automatically refreshed every 10 minutes)

About coastal observations | Map of coastal stations | Coastal observations for NSW | Marine services | Other Formats
Station Details ID: 061078 Name: WILLIAMTOWN RAAF Lat: -32.79 Lon: 151.84 Height: 7.5 m
Data from the previous 72 hours. | See also: Recent months at Williamtown
Date/Time
EDT
Temp
°C
Wind Pressure Rain since
9am
mm
Weather Cloud Vis
km
Sea
Height
m
Swell
Dir  Spd
kts
Gust
kts
hPa Trend Height
m
Period
s
Dir
23/09:00am 24.4 NE 12 17 1016.0 F 0.0 - Mostly clear 10 - - - -
23/08:30am 23.4 ENE 7 11 1016.1 - 0.0 - Mostly clear 10 - - - -
23/08:00am 21.5 ENE 5 7 1016.0 - 0.0 - Mostly clear 10 - - - -
23/07:30am 19.7 ENE 5 7 1015.8 - 0.0 - Mostly clear 10 - - - -
23/07:00am 19.1 ENE 5 7 1015.5 - 0.0 - Mostly clear 10 - - - -
23/06:30am 19.2 ENE 6 7 1015.4 - 0.0 - - 10 - - - -
23/06:00am 19.2 E 6 7 1015.2 F 0.0 - Mostly cloudy 10 - - - -
23/05:30am 19.0 E 5 7 1015.0 - 0.0 - - 10 - - - -
23/05:00am 19.1 ENE 6 8 1014.8 - 0.0 - - 10 - - - -
23/04:30am 19.2 ENE 7 9 1014.8 - 0.0 - - 10 - - - -
23/04:00am 19.6 E 7 8 1014.9 - 0.0 - - 10 - - - -
23/03:30am 19.7 ENE 5 6 1015.2 - 0.0 - - 10 - - - -
23/03:00am 19.6 ENE 5 6 1015.0 F 0.0 - Mostly clear 10 - - - -
23/02:30am 19.7 ENE 6 9 1014.8 - 0.0 - - 10 - - - -
23/02:00am 20.0 ENE 7 9 1015.1 - 0.0 - - 10 - - - -
23/01:30am 20.1 ENE 5 6 1015.5 - 0.0 - - 10 - - - -
23/01:00am 20.2 ENE 5 6 1015.7 - 0.0 - - 10 - - - -
23/12:30am 20.7 ENE 5 7 1015.8 - 0.0 - - 10 - - - -
23/12:00am 21.4 NE 7 10 1015.9 F 0.0 - - 10 - - - -
 
Date/Time
EDT
Temp
°C
Wind Pressure Rain since
9am
mm
Weather Cloud Vis
km
Sea
Height
m
Swell
Dir  Spd
kts
Gust
kts
hPa Trend Height
m
Period
s
Dir
22/11:30pm 21.7 NE 8 14 1015.9 - 0.0 - - 10 - - - -
22/11:00pm 21.8 NE 9 13 1016.0 - 0.0 - - 10 - - - -
22/10:30pm 21.6 NE 6 9 1016.1 - 0.0 - - 10 - - - -
22/10:00pm 21.8 NE 8 11 1016.0 - 0.0 - - 10 - - - -
22/09:30pm 22.0 ENE 7 9 1016.1 - 0.0 - - 10 - - - -
22/09:00pm 22.6 ENE 7 10 1016.1 R 0.0 - - 10 - - - -
22/08:30pm 23.0 NE 9 14 1015.6 - 0.0 - - 10 - - - -
22/08:00pm 23.1 NE 10 17 1015.3 - 0.0 - - 10 - - - -
22/07:30pm 23.4 ENE 9 13 1015.1 - 0.0 - - 10 - - - -
22/07:00pm 24.0 ENE 13 19 1014.7 - 0.0 - - 10 - - - -
22/06:30pm 24.5 ENE 15 20 1014.6 - 0.0 - - 10 - - - -
22/06:17pm 24.6 ENE 15 25 1014.3 - 0.0 - - 10 - - - -
22/06:00pm 24.6 ENE 16 22 1014.3 S 0.0 - Mostly cloudy 10 - - - -
22/05:30pm 25.0 ENE 15 19 1014.1 - 0.0 - - 10 - - - -
22/05:00pm 25.3 ENE 17 22 1014.4 - 0.0 - - 10 - - - -
22/04:30pm 26.2 ENE 15 21 1014.4 - 0.0 - - 10 - - - -
22/04:00pm 26.0 ESE 16 20 1014.5 - 0.0 - - 10 - - - -
22/03:30pm 26.4 ESE 16 20 1014.7 - 0.0 - - 10 - - - -
22/03:00pm 26.6 ESE 14 20 1014.8 R 0.0 - Mostly cloudy 10 - - - -
22/02:30pm 26.6 E 10 17 1015.0 - 0.0 - Partly cloudy 10 - - - -
22/02:00pm 26.2 E 11 18 1015.4 - 0.0 - Partly cloudy 10 - - - -
22/01:30pm 26.8 NE 11 18 1015.4 - 0.0 - Partly cloudy 10 - - - -
22/01:00pm 26.3 ENE 11 16 1015.8 - 0.0 - Partly cloudy 10 - - - -
22/12:30pm 26.5 ENE 11 18 1016.1 - 0.0 - Mostly clear 10 - - - -
22/12:00pm 26.2 ENE 13 19 1016.4 F 0.0 - Cloudy 10 - - - -
22/11:30am 25.1 ENE 11 15 1016.8 - 0.0 - Mostly clear 10 - - - -
22/11:00am 24.4 NNE 10 14 1017.0 - 0.0 - Mostly clear 10 - - - -
22/10:30am 23.9 N 7 13 1017.4 - 0.0 - Partly cloudy 10 - - - -
22/10:00am 23.1 NNE 6 10 1017.4 - 0.0 - - 10 - - - -
22/09:30am 22.4 N 6 7 1017.5 - 0.0 - - 10 - - - -
22/09:00am 20.8 CALM 0 0 1017.6 R 0.0 - Mostly cloudy 10 - - - -
22/08:30am 19.5 CALM 0 0 1017.4 - 0.0 - - 10 - - - -
22/08:00am 18.5 CALM 0 3 1017.3 - 0.0 - - 10 - - - -
22/07:30am 17.5 CALM 0 0 1017.2 - 0.0 - - 10 - - - -
22/07:00am 16.7 CALM 0 0 1016.8 - 0.0 - Partly cloudy 10 - - - -
22/06:30am 16.6 WSW 1 4 1016.7 - 0.0 - Cloudy 10 - - - -
22/06:00am 16.2 CALM 0 0 1016.3 F 0.0 - Cloudy 10 - - - -
22/05:30am 15.8 WSW 3 4 1016.3 - 0.0 - Partly cloudy 10 - - - -
22/05:00am 16.8 WSW 2 4 1015.7 - 0.0 - - 10 - - - -
22/04:30am 16.8 CALM 0 0 1015.7 - 0.0 - - 10 - - - -
22/04:00am 17.7 CALM 0 0 1015.8 - 0.0 - - 10 - - - -
22/03:30am 17.2 CALM 0 0 1015.9 - 0.0 - - 10 - - - -
22/03:00am 17.5 CALM 0 0 1016.2 F 0.0 - Partly cloudy 10 - - - -
22/02:30am 17.8 CALM 0 0 1016.3 - 0.0 - - 10 - - - -
22/02:00am 18.0 CALM 0 0 1016.5 - 0.0 - - 10 - - - -
22/01:30am 18.4 CALM 0 0 1016.7 - 0.0 - - 10 - - - -
22/01:00am 18.0 CALM 0 0 1016.9 - 0.0 - - 10 - - - -
22/12:30am 17.6 CALM 0 0 1017.1 - 0.0 - - 10 - - - -
22/12:00am 17.7 CALM 0 0 1017.1 F 0.0 - - 10 - - - -
 
Date/Time
EDT
Temp
°C
Wind Pressure Rain since
9am
mm
Weather Cloud Vis
km
Sea
Height
m
Swell
Dir  Spd
kts
Gust
kts
hPa Trend Height
m
Period
s
Dir
21/11:30pm 19.4 NE 3 5 1017.0 - 0.0 - Partly cloudy 10 - - - -
21/11:00pm 19.9 NE 4 5 1017.6 - 0.0 - Partly cloudy 10 - - - -
21/10:30pm 20.4 E 4 4 1018.1 - 0.0 - Cloudy 10 - - - -
21/10:00pm 20.5 ENE 5 6 1017.7 - 0.0 - Partly cloudy 10 - - - -
21/09:30pm 21.0 ENE 6 8 1017.4 - 0.0 - Partly cloudy 10 - - - -
21/09:00pm 21.3 E 5 7 1017.1 F 0.0 - Partly cloudy 10 - - - -
21/08:30pm 21.4 E 6 8 1016.8 - 0.0 - Partly cloudy 10 - - - -
21/08:00pm 21.6 ESE 7 8 1016.7 - 0.0 - Mostly clear 10 - - - -
21/07:30pm 21.9 ENE 7 10 1016.3 - 0.0 - Mostly clear 10 - - - -
21/07:00pm 22.4 ESE 9 12 1016.5 - 0.0 - Mostly clear 10 - - - -
21/06:30pm 22.7 ESE 10 14 1016.2 - 0.0 - Mostly clear 10 - - - -
21/06:00pm 23.6 ESE 13 17 1016.2 S 0.0 - Mostly clear 10 - - - -
21/05:30pm 24.1 ESE 11 17 1016.3 - 0.0 - Mostly clear 10 - - - -
21/05:00pm 24.0 ESE 13 18 1016.3 - 0.0 - Mostly clear 10 - - - -
21/04:30pm 24.1 ESE 12 18 1016.4 - 0.0 - Mostly clear 10 - - - -
21/04:00pm 24.3 ESE 15 19 1016.2 - 0.0 - - 10 - - - -
21/03:30pm 24.6 SE 14 19 1016.6 - 0.0 - - 10 - - - -
21/03:00pm 24.0 SE 15 18 1016.7 S 0.0 - Mostly clear 10 - - - -
21/02:30pm 24.9 ESE 12 18 1017.0 - 0.0 - Partly cloudy 10 - - - -
21/02:00pm 24.6 SE 13 16 1017.3 - 0.0 - Mostly clear 10 - - - -
21/01:30pm 24.3 ESE 10 15 1017.6 - 0.0 - Mostly clear 10 - - - -
21/01:00pm 23.5 SE 10 15 1018.0 - 0.0 - Mostly clear 10 - - - -
21/12:30pm 23.7 SSE 8 11 1018.2 - 0.0 - Mostly clear 10 - - - -
21/12:00pm 23.0 SSE 8 11 1018.5 F 0.0 - Cloudy 10 - - - -
21/11:30am 22.8 SE 7 13 1018.8 - 0.0 - Mostly clear 10 - - - -
21/11:00am 22.9 SSE 7 10 1018.8 - 0.0 - Mostly clear 10 - - - -
21/10:30am 22.8 SSE 8 12 1018.9 - 0.0 - Mostly clear 10 - - - -
21/10:00am 22.1 SSE 6 9 1018.9 - 0.0 - Partly cloudy 10 - - - -
21/09:30am 21.7 WSW 3 5 1018.6 - 0.0 - Mostly clear 10 - - - -
21/09:00am 19.5 WSW 5 7 1018.7 F 1.6 - Cloudy 10 - - - -
21/08:30am 18.7 WNW 6 7 1018.6 - 1.6 - Mostly clear 10 - - - -
21/08:00am 17.9 NW 6 6 1018.4 - 1.6 - Mostly clear 10 - - - -
21/07:30am 17.2 NW 6 8 1018.2 - 1.6 - Mostly clear 10 - - - -
21/07:00am 16.4 WNW 5 6 1018.0 - 1.6 - Mostly clear 10 - - - -
21/06:30am 17.2 NNW 5 6 1017.9 - 1.6 - Partly cloudy 10 - - - -
21/06:00am 17.4 NNW 4 5 1018.0 F 1.6 - Cloudy 10 - - - -
21/05:30am 17.4 WNW 5 6 1017.9 - 1.6 - Cloudy 10 - - - -
21/05:00am 17.4 WNW 6 7 1017.9 - 1.6 - Cloudy 10 - - - -
21/04:30am 17.5 WNW 7 8 1017.9 - 1.6 - Cloudy 10 - - - -
21/04:00am 17.7 NW 8 9 1017.7 - 1.6 - Cloudy 10 - - - -
21/03:30am 17.7 NNW 5 6 1017.6 - 1.6 - Cloudy 10 - - - -
21/03:00am 17.5 WSW 4 5 1017.8 S 1.6 - Mostly cloudy 10 - - - -
21/02:30am 18.5 SE 7 8 1017.8 - 1.6 - Partly cloudy 10 - - - -
21/02:00am 19.2 SE 7 8 1017.9 - 1.6 - Cloudy 10 - - - -
21/01:30am 19.1 SE 6 9 1018.1 - 1.6 - Partly cloudy 10 - - - -
21/01:00am 20.2 SE 8 10 1018.1 - 1.6 - Cloudy 10 - - - -
21/12:30am 20.5 SE 8 11 1018.3 - 1.6 - Cloudy 10 - - - -
21/12:00am 20.8 ESE 6 8 1018.6 F 1.6 - Cloudy 10 - - - -
 
Date/Time
EDT
Temp
°C
Wind Pressure Rain since
9am
mm
Weather Cloud Vis
km
Sea
Height
m
Swell
Dir  Spd
kts
Gust
kts
hPa Trend Height
m
Period
s
Dir
20/11:30pm 20.8 ESE 7 10 1018.6 - 1.6 - Cloudy 10 - - - -
20/11:00pm 20.9 SE 9 11 1018.7 - 1.6 - Partly cloudy 10 - - - -
20/10:30pm 20.6 SE 9 14 1018.6 - 1.6 - Cloudy 10 - - - -
20/10:00pm 19.7 SSW 7 12 1019.0 - 1.6 - Cloudy 10 - - - -
20/09:30pm 19.6 SE 4 6 1018.9 - 1.6 - Partly cloudy 10 - - - -
20/09:00pm 20.1 SSE 10 16 1018.9 R 1.6 Rain Cloudy 10 - - - -
20/08:30pm 21.0 SE 10 16 1018.4 - 1.6 - Partly cloudy 10 - - - -
20/08:00pm 20.9 SE 12 16 1018.1 - 1.6 - Cloudy 10 - - - -
20/07:30pm 20.9 SSE 13 21 1017.8 - 1.6 - Cloudy 10 - - - -
20/07:00pm 21.0 SSE 14 18 1017.5 - 1.6 - Cloudy 10 - - - -
20/06:30pm 21.3 SSE 14 19 1017.4 - 1.6 - Partly cloudy 10 - - - -
20/06:00pm 21.1 SE 12 17 1017.2 R 1.6 - Cloudy 10 - - - -
20/05:30pm 21.4 SE 14 17 1017.0 - 1.6 - Partly cloudy 10 - - - -
20/05:00pm 21.5 SE 13 16 1017.0 - 1.6 - Mostly clear 10 - - - -
20/04:30pm 21.5 SE 14 18 1017.0 - 1.6 - Cloudy 10 - - - -
20/04:00pm 21.6 SE 15 20 1017.2 - 1.6 - Cloudy 10 - - - -
20/03:30pm 21.6 SE 16 20 1017.1 - 1.6 - Partly cloudy 10 - - - -
20/03:00pm 22.1 SSE 18 21 1017.2 R 1.6 - Cloudy 10 - - - -
20/02:30pm 21.9 SSE 16 21 1017.6 - 1.6 - Partly cloudy 10 - - - -
20/02:00pm 21.5 SSE 20 25 1017.5 - 1.6 - Partly cloudy 10 - - - -
20/01:30pm 21.1 SSE 19 28 1017.3 - 1.6 Showers Partly cloudy 10 - - - -
20/01:00pm 20.9 SSE 19 27 1017.1 - 1.4 - Partly cloudy 10 - - - -
20/12:38pm 19.9 SSE 20 30 1017.0 - 1.4 Showers Mostly clear 10 - - - -
20/12:30pm 19.3 SSE 22 29 1017.1 - 1.4 Showers Mostly clear 6 - - - -
20/12:11pm 19.4 SSE 21 29 1017.0 - 1.4 Showers Mostly clear 6 - - - -
20/12:00pm 20.7 SSE 21 29 1016.9 R 1.2 - Cloudy 10 - - - -
20/11:30am 20.3 SSE 23 29 1016.8 - 1.2 - Mostly clear 10 - - - -
20/11:05am 20.6 SSE 22 32 1016.6 - 1.2 Showers Mostly clear 10 - - - -
20/11:00am 20.5 S 21 29 1016.6 - 1.2 - Mostly clear 10 - - - -
20/10:30am 20.1 S 21 27 1016.6 - 1.2 Showers Mostly clear 10 - - - -
20/10:17am 21.1 SSE 19 26 1016.5 - 1.2 Showers Mostly clear 10 - - - -
20/10:00am 20.1 SSE 19 25 1016.5 - 1.2 - Mostly clear 5 - - - -
20/09:57am 20.2 SSE 18 25 1016.5 - 0.8 Showers Mostly clear 5 - - - -

Other Formats:

Comma delimited format used in spreadsheet applications
http://www.bom.gov.au/fwo/IDN60701/IDN60701.94776.axf

JavaScript Object Notation format (JSON) in row-major order
http://www.bom.gov.au/fwo/IDN60701/IDN60701.94776.json